Time;durP1;ratioP1;P1;durP2;ratioP2;P2;SDS_P1;SDS_P2;PMS_P1;PMS_P2;Temp;Humidity;BMP_temperature;BMP_pressure;BME280_temperature;BME280_humidity;BME280_pressure;Samples;Min_cycle;Max_cycle;Signal;HPM_P1;HPM_P2
2023/08/26 00:00:43;;;;;;;11.30;8.60;;;;;;;19.99;77.85;96843.73;108656;1254;95528;-80
2023/08/26 00:03:30;;;;;;;12.30;9.10;;;;;;;20.04;77.76;96839.97;108663;1254;105515;-82
2023/08/26 00:05:58;;;;;;;11.70;8.70;;;;;;;20.06;78.18;96832.16;108666;1254;101601;-82
2023/08/26 00:08:26;;;;;;;12.40;9.00;;;;;;;20.04;78.09;96828.67;108591;1254;100165;-82
2023/08/26 00:10:53;;;;;;;11.10;8.50;;;;;;;20.06;78.01;96830.91;108639;1254;95524;-82
2023/08/26 00:13:21;;;;;;;14.70;9.90;;;;;;;20.06;78.70;96824.98;108662;1254;95499;-82
2023/08/26 00:15:48;;;;;;;12.70;8.50;;;;;;;20.02;78.91;96821.53;108670;1254;103638;-82
2023/08/26 00:18:16;;;;;;;13.90;9.80;;;;;;;19.99;78.99;96823.35;108645;1254;100668;-81
2023/08/26 00:20:44;;;;;;;11.70;8.70;;;;;;;19.98;78.65;96820.89;108578;1254;100245;-81
2023/08/26 00:23:12;;;;;;;9.80;8.80;;;;;;;19.99;79.43;96816.89;108633;1254;95539;-81
2023/08/26 00:25:39;;;;;;;10.10;8.20;;;;;;;19.98;79.31;96810.15;108690;1254;95976;-83
2023/08/26 00:28:07;;;;;;;11.00;8.70;;;;;;;19.98;79.10;96815.41;108647;1254;104065;-82
2023/08/26 00:30:35;;;;;;;9.10;8.20;;;;;;;20.00;79.33;96815.61;108693;1254;101637;-82
2023/08/26 00:33:02;;;;;;;11.50;8.00;;;;;;;19.98;79.04;96811.73;108630;1254;108712;-82
2023/08/26 00:35:30;;;;;;;11.10;8.80;;;;;;;19.99;78.94;96805.98;108646;1254;95570;-83
2023/08/26 00:37:58;;;;;;;12.70;8.60;;;;;;;20.00;79.13;96801.66;108670;1254;96067;-83
2023/08/26 00:40:25;;;;;;;11.00;8.90;;;;;;;19.99;78.94;96797.71;108704;1254;103743;-83
2023/08/26 00:42:54;;;;;;;9.60;7.90;;;;;;;19.98;79.19;96799.20;108683;1254;101588;-83
2023/08/26 00:45:22;;;;;;;12.00;8.50;;;;;;;19.97;79.10;96799.52;108685;1254;100194;-82
2023/08/26 00:47:50;;;;;;;11.20;9.00;;;;;;;19.98;79.16;96801.27;108654;1254;95607;-81
2023/08/26 00:50:18;;;;;;;11.40;8.20;;;;;;;19.96;79.24;96805.13;108713;1254;95957;-82
2023/08/26 00:52:45;;;;;;;12.20;8.10;;;;;;;19.97;79.00;96810.70;108666;1254;111454;-82
2023/08/26 00:55:13;;;;;;;10.50;8.10;;;;;;;19.98;79.11;96815.57;108649;1254;101660;-81
2023/08/26 00:57:42;;;;;;;11.50;7.90;;;;;;;19.99;79.15;96818.25;108666;1254;100123;-82
2023/08/26 01:00:10;;;;;;;10.40;7.50;;;;;;;19.98;78.98;96816.95;108635;1254;95599;-83
2023/08/26 01:02:38;;;;;;;13.10;8.60;;;;;;;19.98;79.12;96815.46;108672;1254;96020;-81
2023/08/26 01:05:07;;;;;;;11.90;8.60;;;;;;;19.98;78.90;96817.00;108697;1254;112324;-82
2023/08/26 01:07:35;;;;;;;12.70;8.20;;;;;;;19.95;79.53;96821.02;108724;1254;109289;-83
2023/08/26 01:10:03;;;;;;;11.40;8.30;;;;;;;19.86;79.66;96824.92;108599;1254;100197;-82
2023/08/26 01:12:45;;;;;;;9.40;8.40;;;;;;;19.81;79.52;96823.79;108655;1254;95534;-82
2023/08/26 01:15:14;;;;;;;13.80;8.00;;;;;;;19.82;79.73;96820.94;108695;1254;95606;-82
2023/08/26 01:17:42;;;;;;;14.00;8.10;;;;;;;19.82;79.71;96817.27;108547;1256;104024;-81
2023/08/26 01:20:11;;;;;;;9.90;8.30;;;;;;;19.85;79.60;96821.80;108491;1256;101790;-82
2023/08/26 01:22:42;;;;;;;11.50;8.40;;;;;;;19.87;79.60;96816.98;108470;1256;99936;-82
2023/08/26 01:25:10;;;;;;;12.20;8.40;;;;;;;19.83;80.21;96810.27;108498;1256;96039;-81
2023/08/26 01:27:38;;;;;;;9.50;8.00;;;;;;;19.74;80.25;96809.89;108506;1256;96033;-84
2023/08/26 01:30:08;;;;;;;11.60;8.10;;;;;;;19.73;80.12;96807.15;108550;1256;103775;-81
2023/08/26 01:32:43;;;;;;;12.90;8.00;;;;;;;19.73;80.25;96806.71;108511;1256;101484;-81
2023/08/26 01:35:16;;;;;;;11.30;8.90;;;;;;;19.75;80.17;96800.69;108512;1256;100281;-84
2023/08/26 01:37:46;;;;;;;10.90;8.30;;;;;;;19.73;80.97;96798.83;108482;1256;95600;-81
2023/08/26 01:40:14;;;;;;;9.50;8.40;;;;;;;19.69;80.57;96799.27;108485;1256;96221;-82
2023/08/26 01:42:44;;;;;;;11.60;8.60;;;;;;;19.71;80.46;96799.33;108518;1256;103778;-81
2023/08/26 01:45:12;;;;;;;13.70;9.40;;;;;;;19.70;80.62;96795.61;108495;1256;101534;-84
2023/08/26 01:47:40;;;;;;;12.20;8.80;;;;;;;19.67;80.65;96788.52;108476;1256;100358;-83
2023/08/26 01:50:08;;;;;;;11.20;8.00;;;;;;;19.64;80.28;96788.48;108671;1253;95625;-81
2023/08/26 01:52:36;;;;;;;10.10;8.60;;;;;;;19.66;80.20;96784.80;108694;1253;96010;-83
2023/08/26 01:55:05;;;;;;;10.80;8.80;;;;;;;19.69;80.49;96788.39;108720;1253;103803;-83
2023/08/26 01:57:32;;;;;;;10.60;8.40;;;;;;;19.68;80.31;96788.08;108633;1253;101433;-83
2023/08/26 02:00:00;;;;;;;14.70;8.90;;;;;;;19.62;80.40;96788.67;108719;1253;109599;-81
2023/08/26 02:02:28;;;;;;;9.10;8.20;;;;;;;19.56;80.46;96791.11;108694;1253;95483;-81
2023/08/26 02:04:55;;;;;;;11.30;8.40;;;;;;;19.58;80.37;96786.06;108771;1253;95973;-84
2023/08/26 02:07:23;;;;;;;12.90;8.70;;;;;;;19.59;80.68;96786.48;108731;1253;103772;-83
2023/08/26 02:09:51;;;;;;;10.70;8.60;;;;;;;19.53;81.07;96782.91;108709;1254;101628;-84
2023/08/26 02:12:18;;;;;;;9.50;8.40;;;;;;;19.48;81.04;96782.16;108694;1253;100176;-81
2023/08/26 02:14:46;;;;;;;10.80;8.00;;;;;;;19.46;81.49;96780.84;108679;1253;95517;-82
2023/08/26 02:17:14;;;;;;;11.20;8.60;;;;;;;19.41;81.64;96779.52;108774;1253;95977;-82
2023/08/26 02:19:41;;;;;;;13.00;8.10;;;;;;;19.39;81.22;96777.39;108787;1253;103759;-82
2023/08/26 02:22:09;;;;;;;9.40;7.90;;;;;;;19.40;81.29;96780.23;108756;1253;102343;-81
2023/08/26 02:24:37;;;;;;;10.90;8.30;;;;;;;19.41;81.38;96779.30;108694;1253;100539;-81
2023/08/26 02:27:05;;;;;;;10.30;7.80;;;;;;;19.39;81.70;96782.48;108709;1253;95524;-83
2023/08/26 02:29:33;;;;;;;9.80;8.70;;;;;;;19.33;82.42;96782.41;108712;1253;96001;-82
2023/08/26 02:32:01;;;;;;;9.90;8.60;;;;;;;19.27;82.57;96781.77;108741;1253;103633;-83
2023/08/26 02:34:28;;;;;;;11.40;8.00;;;;;;;19.25;82.21;96784.73;108724;1253;100485;-83
2023/08/26 02:36:56;;;;;;;11.60;8.50;;;;;;;19.27;81.96;96785.55;108740;1253;99993;-82
2023/08/26 02:39:24;;;;;;;12.10;8.60;;;;;;;19.27;82.97;96785.55;108694;1253;95528;-82
2023/08/26 02:41:52;;;;;;;9.90;8.40;;;;;;;19.22;83.28;96788.92;108749;1253;96044;-82
2023/08/26 02:44:20;;;;;;;9.50;8.50;;;;;;;19.16;83.44;96789.83;108737;1253;103365;-82
2023/08/26 02:46:47;;;;;;;10.40;7.80;;;;;;;19.14;82.99;96790.16;108779;1253;101609;-83
2023/08/26 02:49:15;;;;;;;16.40;8.70;;;;;;;19.15;83.75;96790.60;108702;1253;99770;-85
2023/08/26 02:51:43;;;;;;;12.10;8.50;;;;;;;19.12;83.61;96795.30;108698;1253;95543;-84
2023/08/26 02:54:10;;;;;;;11.90;8.50;;;;;;;19.10;83.75;96797.45;108752;1253;95989;-82
2023/08/26 02:56:38;;;;;;;11.30;8.20;;;;;;;19.09;83.83;96799.37;108692;1256;103774;-86
2023/08/26 02:59:06;;;;;;;11.20;8.70;;;;;;;19.05;84.00;96796.77;108697;1253;101569;-84
2023/08/26 03:01:34;;;;;;;10.30;8.40;;;;;;;19.01;84.37;96799.84;108748;1253;100294;-85
2023/08/26 03:04:01;;;;;;;9.30;8.40;;;;;;;18.95;84.92;96799.48;108697;1253;95555;-84
2023/08/26 03:06:29;;;;;;;10.40;8.10;;;;;;;18.92;84.71;96804.96;108764;1253;96457;-84
2023/08/26 03:08:57;;;;;;;12.20;9.00;;;;;;;18.91;84.87;96809.07;108730;1253;110848;-84
2023/08/26 03:11:24;;;;;;;14.20;9.00;;;;;;;18.90;85.42;96803.39;108729;1253;102110;-83
2023/08/26 03:13:52;;;;;;;9.90;8.20;;;;;;;18.90;84.78;96806.27;108722;1253;100316;-86
2023/08/26 03:16:20;;;;;;;14.70;8.60;;;;;;;18.93;85.65;96808.25;108685;1253;95502;-81
2023/08/26 03:18:47;;;;;;;9.80;8.50;;;;;;;18.91;85.40;96803.06;108689;1253;96006;-81
2023/08/26 03:21:15;;;;;;;11.00;8.70;;;;;;;18.91;84.86;96808.30;108665;1253;103523;-84
2023/08/26 03:23:43;;;;;;;11.60;8.60;;;;;;;18.91;84.39;96804.64;108691;1253;101506;-81
2023/08/26 03:26:10;;;;;;;10.50;8.40;;;;;;;18.93;84.04;96810.55;108716;1253;100130;-82
2023/08/26 03:28:38;;;;;;;9.30;8.20;;;;;;;18.95;84.00;96812.17;108710;1253;95543;-84
2023/08/26 03:31:06;;;;;;;13.30;8.50;;;;;;;18.93;83.83;96812.09;108775;1253;96029;-83
2023/08/26 03:33:35;;;;;;;10.80;8.50;;;;;;;18.90;83.96;96811.31;108737;1253;103478;-81
2023/08/26 03:36:04;;;;;;;9.40;8.30;;;;;;;18.86;83.82;96820.62;108734;1253;101470;-85
2023/08/26 03:38:32;;;;;;;14.30;8.30;;;;;;;18.84;83.93;96818.27;108428;1253;100272;-82
2023/08/26 03:41:03;;;;;;;9.00;8.10;;;;;;;18.81;83.86;96817.05;108657;1253;95585;-83
2023/08/26 03:43:31;;;;;;;10.40;8.40;;;;;;;18.82;83.67;96820.87;108422;1256;96014;-82
2023/08/26 03:45:59;;;;;;;10.40;7.90;;;;;;;18.83;83.66;96824.91;108430;1256;103326;-83
2023/08/26 03:48:27;;;;;;;10.20;8.30;;;;;;;18.86;83.33;96824.66;108356;1260;101533;-82
2023/08/26 03:50:58;;;;;;;9.80;8.30;;;;;;;18.88;83.22;96828.66;108387;1256;100024;-81
2023/08/26 03:53:27;;;;;;;10.70;8.10;;;;;;;18.86;83.64;96829.70;108393;1256;95711;-84
2023/08/26 03:55:55;;;;;;;10.80;8.30;;;;;;;18.81;83.98;96827.42;108519;1255;96042;-83
2023/08/26 03:58:22;;;;;;;11.90;8.30;;;;;;;18.77;84.30;96825.90;108425;1256;103754;-84
2023/08/26 04:00:51;;;;;;;10.50;8.70;;;;;;;18.75;84.31;96827.98;108445;1256;101676;-82
2023/08/26 04:03:18;;;;;;;11.30;8.70;;;;;;;18.75;83.99;96835.30;108395;1256;100261;-83
2023/08/26 04:05:46;;;;;;;10.90;8.50;;;;;;;18.76;84.29;96836.95;108386;1256;95643;-81
2023/08/26 04:08:13;;;;;;;12.60;8.90;;;;;;;18.73;84.64;96838.80;108461;1257;96099;-80
2023/08/26 04:10:41;;;;;;;12.60;9.10;;;;;;;18.75;84.09;96845.80;108525;1256;102552;-82
2023/08/26 04:13:20;;;;;;;12.50;8.20;;;;;;;18.80;84.19;96841.70;108359;1256;101572;-82
2023/08/26 04:15:48;;;;;;;11.30;9.10;;;;;;;18.81;83.98;96853.41;108611;1253;100004;-82
2023/08/26 04:18:15;;;;;;;13.00;9.10;;;;;;;18.87;83.58;96857.20;108694;1253;95548;-81
2023/08/26 04:20:43;;;;;;;9.00;7.70;;;;;;;18.90;83.43;96866.50;108717;1253;95994;-81
2023/08/26 04:23:11;;;;;;;8.40;7.40;;;;;;;18.94;83.38;96867.98;108706;1253;103816;-82
2023/08/26 04:25:39;;;;;;;9.40;7.30;;;;;;;18.98;83.14;96861.66;108708;1253;101662;-81
2023/08/26 04:28:07;;;;;;;9.20;8.30;;;;;;;19.01;83.16;96864.06;108603;1253;100261;-82
2023/08/26 04:30:36;;;;;;;15.80;8.30;;;;;;;19.00;82.99;96863.20;108649;1253;95586;-82
2023/08/26 04:33:04;;;;;;;12.90;9.00;;;;;;;19.04;82.86;96862.36;108700;1253;96102;-83
2023/08/26 04:35:32;;;;;;;15.80;8.90;;;;;;;19.06;82.81;96861.27;108747;1253;104097;-83
2023/08/26 04:38:01;;;;;;;11.50;9.10;;;;;;;19.03;82.85;96858.70;108717;1253;108096;-82
2023/08/26 04:40:29;;;;;;;10.50;8.40;;;;;;;19.05;82.91;96864.55;108715;1253;100107;-84
2023/08/26 04:42:57;;;;;;;10.40;9.30;;;;;;;19.08;82.72;96866.17;108617;1253;95689;-81
2023/08/26 04:45:25;;;;;;;14.30;9.60;;;;;;;19.10;82.78;96867.52;108666;1254;95919;-82
2023/08/26 04:47:53;;;;;;;14.90;9.90;;;;;;;19.14;82.77;96871.63;108696;1253;103763;-82
2023/08/26 04:50:21;;;;;;;13.30;10.70;;;;;;;19.16;82.69;96871.23;108721;1253;101564;-83
2023/08/26 04:52:49;;;;;;;13.80;11.10;;;;;;;19.19;82.89;96869.05;108652;1253;100627;-81
2023/08/26 04:55:17;;;;;;;13.20;11.00;;;;;;;19.20;82.98;96872.59;108695;1253;95512;-83
2023/08/26 04:57:44;;;;;;;15.50;12.40;;;;;;;19.24;82.94;96880.06;108773;1253;96147;-81
2023/08/26 05:00:16;;;;;;;13.80;12.30;;;;;;;19.28;82.66;96886.52;108716;1253;103429;-81
2023/08/26 05:02:44;;;;;;;12.30;11.20;;;;;;;19.28;83.04;96880.12;108703;1253;101650;-81
2023/08/26 05:05:12;;;;;;;17.10;10.40;;;;;;;19.26;83.33;96874.05;108690;1253;100233;-83
2023/08/26 05:07:39;;;;;;;12.90;9.70;;;;;;;19.27;83.10;96875.80;108626;1253;95557;-83
2023/08/26 05:10:08;;;;;;;10.60;9.20;;;;;;;19.31;82.97;96871.04;108714;1254;96053;-83
2023/08/26 05:12:36;;;;;;;19.70;10.70;;;;;;;19.35;82.76;96863.17;108699;1253;103757;-82
2023/08/26 05:15:04;;;;;;;12.90;10.20;;;;;;;19.41;82.80;96858.83;108713;1253;101606;-82
2023/08/26 05:17:32;;;;;;;15.20;10.10;;;;;;;19.47;82.44;96860.30;108711;1253;99768;-82
2023/08/26 05:19:59;;;;;;;12.50;9.00;;;;;;;19.54;82.50;96859.90;108713;1253;95534;-84
2023/08/26 05:22:27;;;;;;;14.30;9.50;;;;;;;19.58;82.63;96856.20;108746;1253;95964;-82
2023/08/26 05:24:55;;;;;;;15.40;10.20;;;;;;;19.61;82.94;96855.90;108758;1253;103686;-82
2023/08/26 05:27:23;;;;;;;11.50;9.40;;;;;;;19.64;83.15;96858.25;108735;1253;101426;-83
2023/08/26 05:29:51;;;;;;;11.90;8.60;;;;;;;19.69;82.92;96860.84;108729;1253;100523;-83
2023/08/26 05:32:19;;;;;;;10.80;8.70;;;;;;;19.75;82.88;96860.92;108728;1253;95539;-81
2023/08/26 05:34:46;;;;;;;15.20;8.80;;;;;;;19.81;83.06;96857.70;108754;1256;96421;-82
2023/08/26 05:37:14;;;;;;;11.20;9.00;;;;;;;19.86;82.79;96857.89;108765;1253;113041;-81
2023/08/26 05:39:41;;;;;;;16.10;8.90;;;;;;;19.92;83.11;96858.63;108742;1253;101640;-82
2023/08/26 05:42:09;;;;;;;14.20;9.00;;;;;;;19.98;83.34;96854.41;108606;1253;107755;-83
2023/08/26 05:44:37;;;;;;;9.50;8.40;;;;;;;20.00;83.29;96851.07;108696;1253;95603;-83
2023/08/26 05:47:05;;;;;;;10.50;8.40;;;;;;;20.06;82.88;96850.52;108686;1253;96061;-83
2023/08/26 05:49:32;;;;;;;14.70;8.80;;;;;;;20.12;82.95;96856.89;108743;1253;103942;-81
2023/08/26 05:52:00;;;;;;;13.20;8.50;;;;;;;20.21;82.93;96857.75;108722;1254;109752;-82
2023/08/26 05:54:28;;;;;;;13.20;9.40;;;;;;;20.28;82.99;96857.97;108656;1253;107713;-82
2023/08/26 05:56:55;;;;;;;8.40;7.60;;;;;;;20.36;83.10;96854.21;108723;1253;95571;-83
2023/08/26 05:59:23;;;;;;;13.80;8.50;;;;;;;20.43;83.19;96854.58;108746;1253;95968;-83
2023/08/26 06:01:51;;;;;;;12.50;8.30;;;;;;;20.53;83.06;96856.30;108728;1253;103577;-83
2023/08/26 06:04:18;;;;;;;9.80;8.80;;;;;;;20.61;83.19;96854.87;108758;1253;101460;-82
2023/08/26 06:06:46;;;;;;;11.30;7.90;;;;;;;20.68;83.27;96859.46;108730;1253;100092;-83
2023/08/26 06:09:14;;;;;;;9.90;7.90;;;;;;;20.76;83.20;96857.30;108696;1253;95502;-83
2023/08/26 06:11:41;;;;;;;15.00;8.50;;;;;;;20.84;83.11;96854.14;108703;1253;96014;-83
2023/08/26 06:14:09;;;;;;;12.30;8.40;;;;;;;20.92;83.24;96855.76;108698;1253;103730;-83
2023/08/26 06:16:37;;;;;;;11.60;8.70;;;;;;;21.01;83.21;96862.84;108752;1253;111096;-83
2023/08/26 06:19:04;;;;;;;11.30;8.50;;;;;;;21.09;83.15;96862.55;108717;1253;100066;-82
2023/08/26 06:21:32;;;;;;;12.10;8.40;;;;;;;21.19;82.97;96859.98;108675;1253;95596;-83
2023/08/26 06:24:00;;;;;;;10.70;7.90;;;;;;;21.28;82.70;96862.45;108767;1253;96155;-82
2023/08/26 06:26:27;;;;;;;12.00;7.90;;;;;;;21.37;82.64;96863.19;108778;1253;103864;-83
2023/08/26 06:28:55;;;;;;;8.60;7.70;;;;;;;21.47;82.48;96867.29;108754;1254;101368;-81
2023/08/26 06:31:23;;;;;;;9.70;7.80;;;;;;;21.57;82.49;96870.61;108660;1253;99824;-82
2023/08/26 06:33:50;;;;;;;11.00;8.10;;;;;;;21.67;82.31;96871.31;108703;1253;95550;-81
2023/08/26 06:36:18;;;;;;;9.20;8.30;;;;;;;21.77;82.30;96870.27;108721;1253;96482;-81
2023/08/26 06:38:46;;;;;;;9.00;7.00;;;;;;;21.86;82.20;96869.76;108772;1253;103753;-82
2023/08/26 06:41:13;;;;;;;8.60;7.70;;;;;;;21.97;81.85;96868.59;108746;1253;101679;-82
2023/08/26 06:43:41;;;;;;;11.10;7.50;;;;;;;22.06;81.50;96869.25;108713;1253;100063;-82
2023/08/26 06:46:09;;;;;;;10.10;7.60;;;;;;;22.15;81.63;96871.86;108715;1253;95535;-82
2023/08/26 06:48:36;;;;;;;13.80;7.90;;;;;;;22.24;81.49;96878.19;108762;1254;96013;-82
2023/08/26 06:51:04;;;;;;;11.30;7.90;;;;;;;22.34;81.13;96878.26;108771;1253;103753;-82
2023/08/26 06:53:32;;;;;;;10.40;7.60;;;;;;;22.45;80.89;96881.98;108743;1253;101557;-83
2023/08/26 06:56:00;;;;;;;10.70;7.50;;;;;;;22.56;80.63;96878.02;108689;1253;99981;-81
2023/08/26 06:58:27;;;;;;;10.20;8.20;;;;;;;22.67;80.07;96878.27;108743;1253;95647;-82
2023/08/26 07:00:55;;;;;;;14.30;9.70;;;;;;;22.78;79.53;96882.17;108741;1253;95689;-82
2023/08/26 07:03:24;;;;;;;9.20;7.00;;;;;;;22.90;79.25;96883.84;108694;1253;112353;-83
2023/08/26 07:05:52;;;;;;;9.40;7.40;;;;;;;23.00;79.19;96881.95;108740;1254;101341;-82
2023/08/26 07:08:20;;;;;;;11.90;8.60;;;;;;;23.13;79.21;96879.77;108741;1253;105463;-82
2023/08/26 07:10:48;;;;;;;11.90;8.20;;;;;;;23.24;79.11;96880.73;108662;1253;95518;-81
2023/08/26 07:13:16;;;;;;;11.30;7.70;;;;;;;23.34;78.64;96883.15;108762;1253;95970;-83
2023/08/26 09:41:22;;;;;;;12.00;7.60;;;;;;;34.64;47.05;96811.10;102145;1292;636064;-85
2023/08/26 09:43:50;;;;;;;14.00;7.50;;;;;;;34.71;46.88;96809.90;105071;1259;95876;-85
2023/08/26 09:46:22;;;;;;;11.00;7.30;;;;;;;34.82;46.89;96808.42;104801;1263;95906;-85
2023/08/26 09:48:50;;;;;;;11.10;7.30;;;;;;;34.95;46.54;96801.21;105271;1255;100517;-85
2023/08/26 09:51:29;;;;;;;8.00;7.00;;;;;;;35.06;45.56;96798.67;105151;1260;102141;-85
2023/08/26 09:53:58;;;;;;;8.00;7.20;;;;;;;35.17;46.13;96799.58;105117;1269;133198;-85
2023/08/26 09:56:27;;;;;;;11.10;7.00;;;;;;;35.29;45.12;96800.19;105253;1266;95841;-85
2023/08/26 09:58:57;;;;;;;8.40;6.90;;;;;;;35.39;44.93;96794.27;105167;1268;96784;-85
2023/08/26 10:01:25;;;;;;;8.50;7.40;;;;;;;35.48;45.11;96789.15;105066;1258;100288;-85
2023/08/26 10:04:05;;;;;;;9.70;6.80;;;;;;;35.54;44.81;96783.90;105282;1268;102607;-86
2023/08/26 10:06:48;;;;;;;7.90;6.60;;;;;;;35.64;44.98;96778.60;105038;1267;100935;-86
2023/08/26 10:09:47;;;;;;;8.90;7.00;;;;;;;35.78;44.54;96769.10;105080;1266;96706;-86
2023/08/26 10:12:25;;;;;;;9.50;7.00;;;;;;;35.96;44.13;96754.45;105180;1270;95837;-87
2023/08/26 10:14:55;;;;;;;12.70;7.00;;;;;;;36.09;44.18;96750.42;104965;1260;101507;-85
2023/08/26 10:17:27;;;;;;;12.30;8.20;;;;;;;36.18;43.75;96751.60;105362;1254;102457;-86
2023/08/26 10:19:57;;;;;;;13.30;8.30;;;;;;;36.26;43.58;96754.30;105013;1253;100725;-85
2023/08/26 10:22:25;;;;;;;12.60;7.20;;;;;;;36.29;43.36;96750.15;105315;1257;95905;-86
2023/08/26 10:24:53;;;;;;;9.50;6.10;;;;;;;36.20;43.63;96736.60;105311;1260;96021;-86
2023/08/26 10:27:21;;;;;;;9.80;7.40;;;;;;;36.25;43.83;96713.91;105405;1257;110167;-88
2023/08/26 10:29:49;;;;;;;8.50;6.60;;;;;;;36.27;41.56;96716.02;105197;1266;102236;-85
2023/08/26 10:32:19;;;;;;;15.60;8.00;;;;;;;36.22;41.82;96736.70;105073;1267;100380;-86
2023/08/26 10:34:54;;;;;;;8.80;6.30;;;;;;;36.30;42.50;96762.61;105245;1254;96684;-86
2023/08/26 10:37:27;;;;;;;10.80;6.00;;;;;;;36.29;42.34;96775.20;105282;1262;97082;-86
2023/08/26 10:39:55;;;;;;;7.60;6.40;;;;;;;36.01;42.15;96756.00;105577;1257;108928;-84
2023/08/26 10:42:24;;;;;;;9.30;6.10;;;;;;;35.65;41.48;96740.35;108452;1253;102425;-87
2023/08/26 10:44:56;;;;;;;9.80;7.20;;;;;;;35.22;40.82;96732.64;108652;1252;101073;-87
2023/08/26 10:47:40;;;;;;;12.60;7.40;;;;;;;34.77;40.86;96733.23;107755;1254;95841;-84
2023/08/26 10:50:19;;;;;;;7.90;6.80;;;;;;;34.24;42.64;96751.56;105420;1254;95829;-81
2023/08/26 10:52:53;;;;;;;11.40;8.00;;;;;;;33.85;44.01;96769.59;105306;1256;101849;-82
2023/08/26 10:55:34;;;;;;;12.10;8.50;;;;;;;33.54;45.16;96772.70;105020;1259;102195;-82
2023/08/26 10:58:12;;;;;;;12.20;8.00;;;;;;;33.23;45.81;96755.41;105205;1258;100781;-84
2023/08/26 11:00:47;;;;;;;9.90;8.10;;;;;;;32.97;46.39;96752.95;105219;1257;95758;-82
2023/08/26 11:03:18;;;;;;;9.70;7.20;;;;;;;32.75;46.81;96783.30;105163;1255;95815;-82
2023/08/26 11:05:47;;;;;;;10.80;5.60;;;;;;;32.29;45.03;96803.63;105152;1267;101716;-80
2023/08/26 11:08:15;;;;;;;7.20;5.30;;;;;;;31.48;44.53;96826.77;105149;1254;102197;-81
2023/08/26 11:10:43;;;;;;;5.60;5.00;;;;;;;30.92;45.86;96846.39;105097;1254;100630;-80
2023/08/26 11:13:12;;;;;;;11.30;6.10;;;;;;;30.63;46.26;96847.58;105056;1267;95912;-82
2023/08/26 11:15:41;;;;;;;8.60;5.20;;;;;;;30.40;47.21;96838.06;104982;1268;96729;-82
2023/08/26 11:18:11;;;;;;;8.20;6.60;;;;;;;30.08;47.94;96827.05;105216;1256;101580;-85
2023/08/26 11:20:39;;;;;;;10.90;6.40;;;;;;;29.58;48.84;96824.48;105159;1267;102337;-83
2023/08/26 11:23:07;;;;;;;14.50;6.60;;;;;;;29.30;49.51;96825.52;105079;1257;100812;-86
2023/08/26 11:25:36;;;;;;;8.30;6.60;;;;;;;28.88;50.95;96820.30;105157;1266;96756;-84
2023/08/26 11:28:07;;;;;;;9.90;7.30;;;;;;;28.33;52.29;96808.23;105213;1259;95900;-83
2023/08/26 11:30:46;;;;;;;14.10;6.90;;;;;;;28.08;53.06;96814.71;105021;1258;101702;-84
2023/08/26 11:33:16;;;;;;;8.10;6.10;;;;;;;28.08;53.25;96823.98;105123;1256;101920;-82
2023/08/26 11:35:47;;;;;;;7.60;6.20;;;;;;;28.06;53.24;96851.13;104975;1257;100653;-84
2023/08/26 11:38:16;;;;;;;13.30;6.30;;;;;;;27.93;52.97;96874.55;105106;1266;96106;-84
2023/08/26 11:40:45;;;;;;;10.60;5.90;;;;;;;27.79;53.15;96879.04;105166;1270;97136;-84
2023/08/26 11:43:14;;;;;;;7.60;5.50;;;;;;;27.62;53.44;96868.95;105054;1264;102562;-87
2023/08/26 11:45:45;;;;;;;7.70;6.10;;;;;;;27.39;53.55;96847.06;105019;1260;102386;-84
2023/08/26 11:48:14;;;;;;;9.50;6.20;;;;;;;27.19;53.90;96849.07;105009;1260;108888;-83
2023/08/26 11:50:43;;;;;;;6.90;4.80;;;;;;;27.07;54.19;96881.25;105173;1260;95893;-83
2023/08/26 11:53:11;;;;;;;7.50;5.50;;;;;;;26.87;54.26;96940.59;105092;1255;96165;-84
2023/08/26 11:55:39;;;;;;;9.70;4.70;;;;;;;26.56;54.36;97024.70;105088;1264;101592;-84
2023/08/26 12:11:35;;;;;;;5.70;2.00;;;;;;;24.36;56.10;97133.82;102227;1297;642571;-88
2023/08/26 12:14:37;;;;;;;4.60;1.90;;;;;;;22.84;57.93;97137.83;99540;1284;5342640;-88
2023/08/26 12:30:55;;;;;;;8.20;2.50;;;;;;;21.27;64.95;97078.67;102345;1290;636174;-85
2023/08/26 12:34:03;;;;;;;3.80;1.90;;;;;;;21.22;65.66;97037.50;104648;1269;95929;-83
2023/08/26 12:37:12;;;;;;;6.80;2.60;;;;;;;21.26;66.11;97018.34;103545;1278;96304;-82
2023/08/26 12:40:20;;;;;;;5.60;2.60;;;;;;;21.12;66.60;97010.04;103167;1281;98635;-81
2023/08/26 13:03:42;;;;;;;5.40;3.30;;;;;;;21.30;69.09;97043.96;102050;1293;643662;-82
2023/08/26 13:06:51;;;;;;;8.30;3.40;;;;;;;21.41;70.05;97037.95;99782;1275;5341542;-84
2023/08/26 13:09:59;;;;;;;7.10;4.80;;;;;;;21.27;69.81;97045.29;104098;1273;98409;-82
2023/08/26 13:26:35;;;;;;;5.50;2.80;;;;;;;20.79;71.60;97039.50;101365;1310;642142;-85
2023/08/26 13:29:42;;;;;;;5.30;2.80;;;;;;;20.91;72.05;97025.53;104472;1267;95897;-81
2023/08/26 13:32:48;;;;;;;5.60;3.10;;;;;;;21.01;72.37;97018.58;103357;1276;95991;-83
2023/08/26 13:47:57;;;;;;;4.60;2.80;;;;;;;21.73;72.64;96969.77;101346;1308;636139;-77
2023/08/26 13:50:24;;;;;;;4.00;2.60;;;;;;;21.88;72.73;96969.54;103886;1278;95883;-77
2023/08/26 13:52:52;;;;;;;7.40;3.10;;;;;;;22.15;73.39;96968.66;103876;1274;96849;-77
2023/08/26 13:55:20;;;;;;;3.60;2.80;;;;;;;22.33;73.87;96964.50;103945;1284;98535;-77
2023/08/26 13:57:48;;;;;;;5.60;3.10;;;;;;;22.54;73.13;96953.29;104160;1270;100796;-77
2023/08/26 14:00:15;;;;;;;5.40;2.80;;;;;;;22.70;71.94;96955.80;104132;1277;99683;-77
2023/08/26 14:02:43;;;;;;;6.50;3.00;;;;;;;22.85;72.29;96958.22;103982;1275;429747;-82
2023/08/26 14:05:12;;;;;;;6.00;2.50;;;;;;;22.96;71.30;96956.54;104197;1264;96257;-82
2023/08/26 14:07:41;;;;;;;3.80;2.50;;;;;;;23.04;70.90;96957.60;104182;1277;98484;-82
2023/08/26 14:10:09;;;;;;;5.30;2.80;;;;;;;23.13;70.60;96962.69;104225;1271;101892;-82
2023/08/26 14:12:38;;;;;;;4.60;2.90;;;;;;;23.19;70.40;96964.94;104372;1264;98501;-78
2023/08/26 14:15:08;;;;;;;3.90;2.90;;;;;;;23.28;69.59;96970.58;105656;1264;97200;-78
2023/08/26 14:17:37;;;;;;;5.40;3.10;;;;;;;23.32;69.14;96975.11;104337;1267;95817;-78
2023/08/26 14:20:06;;;;;;;3.30;2.70;;;;;;;23.31;69.79;96972.00;103903;1284;99071;-78
2023/08/26 14:22:33;;;;;;;4.50;3.00;;;;;;;23.36;70.14;96969.54;104666;1277;101536;-78
2023/08/26 14:25:01;;;;;;;5.00;3.40;;;;;;;23.49;69.79;96961.27;104508;1261;98981;-78
2023/08/26 14:27:29;;;;;;;5.40;3.40;;;;;;;23.60;69.79;96966.04;104396;1271;95916;-79
2023/08/26 14:29:57;;;;;;;4.80;3.30;;;;;;;23.71;69.82;96969.77;104307;1274;96378;-79
2023/08/26 14:32:24;;;;;;;8.10;3.20;;;;;;;23.79;69.55;96968.55;104382;1277;99504;-82
2023/08/26 14:34:52;;;;;;;4.30;2.80;;;;;;;23.84;68.76;96965.15;104371;1271;101295;-79
2023/08/26 14:37:20;;;;;;;6.40;2.50;;;;;;;23.90;69.59;96958.64;104459;1273;99054;-78
2023/08/26 14:39:47;;;;;;;4.50;2.60;;;;;;;23.93;69.99;96955.41;104476;1263;96692;-79
2023/08/26 14:42:15;;;;;;;2.90;2.30;;;;;;;23.91;69.74;96962.79;104479;1275;95887;-79
2023/08/26 14:44:43;;;;;;;5.10;2.70;;;;;;;23.92;69.96;96968.02;104459;1274;100018;-79
2023/08/26 14:47:10;;;;;;;3.10;2.40;;;;;;;24.00;70.04;96962.44;104494;1264;100002;-81
2023/08/26 14:49:40;;;;;;;4.30;3.00;;;;;;;24.11;70.38;96952.63;104440;1274;98770;-81
2023/08/26 14:52:08;;;;;;;3.90;2.50;;;;;;;24.23;70.40;96943.55;104454;1260;97190;-80
2023/08/26 14:54:36;;;;;;;3.20;2.50;;;;;;;24.35;70.11;96928.39;104467;1273;96169;-79
2023/08/26 14:57:06;;;;;;;3.60;2.50;;;;;;;24.48;69.63;96926.95;104474;1273;99564;-80
2023/08/26 14:59:35;;;;;;;4.50;2.40;;;;;;;24.58;69.27;96926.80;104485;1264;100120;-80
2023/08/26 15:02:02;;;;;;;4.90;2.30;;;;;;;24.61;68.95;96921.98;104497;1264;100212;-77
2023/08/26 15:04:30;;;;;;;6.70;2.60;;;;;;;24.58;68.23;96913.09;104477;1264;97234;-77
2023/08/26 15:06:58;;;;;;;5.40;2.50;;;;;;;24.59;68.34;96912.36;104458;1263;96271;-77
2023/08/26 15:09:25;;;;;;;3.30;2.20;;;;;;;24.66;67.71;96922.63;104478;1264;100802;-78